Time;durP1;ratioP1;P1;durP2;ratioP2;P2;SDS_P1;SDS_P2;PMS_P1;PMS_P2;Temp;Humidity;BMP_temperature;BMP_pressure;BME280_temperature;BME280_humidity;BME280_pressure;Samples;Min_cycle;Max_cycle;Signal;HPM_P1;HPM_P2
2021/08/17 00:02:11;;;;;;;13.23;6.53;;;;;;;;;;5033162;28;20025;-76
2021/08/17 00:04:37;;;;;;;13.45;6.40;;;;;;;;;;5016035;28;20477;-75
2021/08/17 00:07:04;;;;;;;12.10;6.43;;;;;;;;;;5033427;28;20022;-76
2021/08/17 00:09:31;;;;;;;11.02;6.18;;;;;;;;;;5032824;28;20450;-75
2021/08/17 00:11:57;;;;;;;16.70;6.95;;;;;;;;;;5033448;28;20041;-74
2021/08/17 00:14:23;;;;;;;10.98;5.85;;;;;;;;;;5036405;28;20025;-75
2021/08/17 00:16:49;;;;;;;9.98;5.70;;;;;;;;;;5037547;28;20029;-75
2021/08/17 00:19:15;;;;;;;14.85;6.38;;;;;;;;;;5037135;28;20037;-75
2021/08/17 00:21:41;;;;;;;10.95;5.88;;;;;;;;;;5037040;28;20025;-76
2021/08/17 00:24:07;;;;;;;11.57;6.22;;;;;;;;;;5037369;28;20029;-75
2021/08/17 00:26:33;;;;;;;13.48;6.22;;;;;;;;;;5037032;28;20492;-75
2021/08/17 00:28:59;;;;;;;13.57;6.05;;;;;;;;;;5037236;28;20025;-76
2021/08/17 00:31:25;;;;;;;14.30;7.20;;;;;;;;;;5037211;28;20076;-76
2021/08/17 00:33:51;;;;;;;11.60;6.10;;;;;;;;;;5037166;28;20029;-76
2021/08/17 00:36:17;;;;;;;14.10;6.53;;;;;;;;;;5036913;28;20544;-75
2021/08/17 00:38:43;;;;;;;12.52;5.97;;;;;;;;;;5036809;28;20047;-75
2021/08/17 00:41:10;;;;;;;12.18;5.97;;;;;;;;;;5036680;28;20105;-76
2021/08/17 00:43:37;;;;;;;10.93;6.13;;;;;;;;;;5018976;28;20049;-75
2021/08/17 00:46:04;;;;;;;13.55;6.18;;;;;;;;;;5036694;28;20022;-75
2021/08/17 00:48:30;;;;;;;12.73;5.90;;;;;;;;;;5037235;28;20469;-75
2021/08/17 00:50:56;;;;;;;13.00;6.10;;;;;;;;;;5036601;28;20083;-74
2021/08/17 00:53:22;;;;;;;18.13;6.47;;;;;;;;;;5036529;28;20064;-75
2021/08/17 00:55:52;;;;;;;13.55;6.00;;;;;;;;;;5036483;28;20069;-75
2021/08/17 00:58:20;;;;;;;10.27;5.78;;;;;;;;;;5037062;28;20389;-75
2021/08/17 01:00:50;;;;;;;14.27;5.95;;;;;;;;;;5036342;28;20026;-75
2021/08/17 01:03:16;;;;;;;11.10;5.70;;;;;;;;;;5036396;28;20022;-75
2021/08/17 01:05:42;;;;;;;13.05;6.57;;;;;;;;;;5036593;28;20036;-75
2021/08/17 01:08:08;;;;;;;14.80;6.30;;;;;;;;;;5036484;28;20464;-74
2021/08/17 01:10:35;;;;;;;11.00;6.18;;;;;;;;;;5036179;28;20509;-76
2021/08/17 01:13:02;;;;;;;16.58;7.22;;;;;;;;;;5036428;28;20059;-75
2021/08/17 01:15:28;;;;;;;11.38;6.15;;;;;;;;;;5036733;28;20038;-76
2021/08/17 01:17:54;;;;;;;11.15;6.38;;;;;;;;;;5036090;28;20547;-76
2021/08/17 01:20:20;;;;;;;11.60;6.15;;;;;;;;;;5036286;28;20033;-75
2021/08/17 01:22:47;;;;;;;12.05;5.80;;;;;;;;;;5036317;28;20071;-75
2021/08/17 01:25:13;;;;;;;11.18;5.90;;;;;;;;;;5035872;28;20040;-75
2021/08/17 01:27:40;;;;;;;14.57;5.80;;;;;;;;;;5036202;28;20475;-75
2021/08/17 01:30:07;;;;;;;14.00;6.65;;;;;;;;;;5018717;28;20022;-76
2021/08/17 01:32:33;;;;;;;13.25;5.97;;;;;;;;;;5036102;28;20025;-75
2021/08/17 01:34:59;;;;;;;12.50;5.72;;;;;;;;;;5036290;28;20049;-76
2021/08/17 01:37:25;;;;;;;10.20;5.38;;;;;;;;;;5017994;28;20053;-76
2021/08/17 01:40:02;;;;;;;15.02;6.07;;;;;;;;;;5035690;28;20098;-75
2021/08/17 01:42:28;;;;;;;12.30;5.78;;;;;;;;;;5035885;28;20033;-75
2021/08/17 01:44:56;;;;;;;12.77;5.70;;;;;;;;;;5035633;28;20033;-76
2021/08/17 01:47:22;;;;;;;12.02;5.32;;;;;;;;;;5035564;28;20052;-75
2021/08/17 01:49:48;;;;;;;12.73;5.88;;;;;;;;;;5035537;28;20022;-75
2021/08/17 01:52:14;;;;;;;11.63;5.93;;;;;;;;;;5035471;28;20029;-76
2021/08/17 01:54:40;;;;;;;12.82;5.97;;;;;;;;;;5035687;28;20033;-76
2021/08/17 01:57:06;;;;;;;13.25;6.47;;;;;;;;;;5035381;28;20500;-75
2021/08/17 01:59:33;;;;;;;9.80;5.55;;;;;;;;;;5035329;28;20029;-75
2021/08/17 02:01:59;;;;;;;9.90;5.38;;;;;;;;;;5017457;28;20022;-76
2021/08/17 02:04:28;;;;;;;11.20;5.50;;;;;;;;;;5035225;28;20105;-75
2021/08/17 02:06:54;;;;;;;10.95;5.50;;;;;;;;;;5035189;28;20040;-75
2021/08/17 02:09:20;;;;;;;11.35;5.35;;;;;;;;;;5034846;28;20017;-75
2021/08/17 02:11:46;;;;;;;11.55;5.32;;;;;;;;;;5035403;28;20402;-75
2021/08/17 02:14:12;;;;;;;9.95;5.07;;;;;;;;;;5035050;28;20026;-76
2021/08/17 02:16:38;;;;;;;12.07;5.00;;;;;;;;;;5035022;28;20029;-75
2021/08/17 02:19:04;;;;;;;10.98;4.95;;;;;;;;;;5035266;28;20052;-75
2021/08/17 02:21:30;;;;;;;12.85;5.50;;;;;;;;;;5035072;28;20454;-75
2021/08/17 02:23:56;;;;;;;9.95;5.05;;;;;;;;;;5034863;28;20024;-76
2021/08/17 02:26:22;;;;;;;9.82;5.40;;;;;;;;;;5035103;28;20021;-77
2021/08/17 02:28:48;;;;;;;11.52;5.30;;;;;;;;;;5034783;28;20366;-75
2021/08/17 02:31:14;;;;;;;10.18;5.35;;;;;;;;;;5034792;28;20033;-76
2021/08/17 02:33:40;;;;;;;8.57;4.63;;;;;;;;;;5035248;28;20076;-76
2021/08/17 02:36:06;;;;;;;9.93;4.57;;;;;;;;;;5034107;28;20029;-76
2021/08/17 02:38:32;;;;;;;11.80;5.15;;;;;;;;;;5034605;28;20639;-75
2021/08/17 02:40:58;;;;;;;15.48;5.05;;;;;;;;;;5034436;28;20029;-75
2021/08/17 02:43:24;;;;;;;13.18;5.38;;;;;;;;;;5034499;28;20028;-76
2021/08/17 02:45:51;;;;;;;13.45;5.30;;;;;;;;;;5034522;28;20022;-76
2021/08/17 02:48:18;;;;;;;8.48;4.47;;;;;;;;;;5034428;28;20385;-76
2021/08/17 02:50:44;;;;;;;13.60;5.93;;;;;;;;;;5016615;28;20030;-74
2021/08/17 02:53:10;;;;;;;11.27;5.95;;;;;;;;;;5034341;28;20026;-76
2021/08/17 02:55:36;;;;;;;10.63;5.28;;;;;;;;;;5034534;28;20036;-74
2021/08/17 02:58:05;;;;;;;11.85;5.45;;;;;;;;;;5034529;28;20025;-75
2021/08/17 03:00:32;;;;;;;10.52;5.18;;;;;;;;;;5016431;28;20034;-76
2021/08/17 03:02:58;;;;;;;12.93;5.97;;;;;;;;;;5034421;28;20017;-75
2021/08/17 03:05:24;;;;;;;11.82;6.03;;;;;;;;;;5034074;28;20091;-75
2021/08/17 03:07:50;;;;;;;12.50;5.70;;;;;;;;;;5033935;28;20469;-76
2021/08/17 03:10:16;;;;;;;12.15;5.97;;;;;;;;;;5033961;28;20045;-76
2021/08/17 03:12:42;;;;;;;13.18;5.78;;;;;;;;;;5034501;28;20025;-74
2021/08/17 03:15:08;;;;;;;10.75;5.55;;;;;;;;;;5034190;28;20437;-75
2021/08/17 03:17:37;;;;;;;11.93;5.30;;;;;;;;;;5016190;28;20028;-75
2021/08/17 03:20:04;;;;;;;11.15;5.30;;;;;;;;;;5033835;28;20432;-76
2021/08/17 03:22:30;;;;;;;11.07;5.35;;;;;;;;;;5016013;28;20026;-75
2021/08/17 03:24:56;;;;;;;11.43;5.47;;;;;;;;;;5033739;28;20132;-75
2021/08/17 03:27:22;;;;;;;9.63;5.65;;;;;;;;;;5016035;28;20432;-76
2021/08/17 03:29:48;;;;;;;11.05;5.13;;;;;;;;;;5034244;28;20018;-76
2021/08/17 03:32:14;;;;;;;10.00;5.47;;;;;;;;;;5033634;28;20048;-75
2021/08/17 03:34:40;;;;;;;10.85;4.30;;;;;;;;;;5017018;28;20025;-75
2021/08/17 03:37:06;;;;;;;8.82;4.93;;;;;;;;;;5033556;28;20116;-76
2021/08/17 03:39:32;;;;;;;11.05;4.35;;;;;;;;;;5033494;28;20035;-76
2021/08/17 03:41:58;;;;;;;9.88;4.65;;;;;;;;;;5033383;28;20116;-76
2021/08/17 03:44:24;;;;;;;10.65;4.85;;;;;;;;;;5015776;28;20025;-75
2021/08/17 03:46:50;;;;;;;9.43;4.50;;;;;;;;;;5033179;28;20430;-75
2021/08/17 03:49:16;;;;;;;9.35;4.65;;;;;;;;;;5032824;28;20109;-74
2021/08/17 03:51:42;;;;;;;12.02;5.15;;;;;;;;;;5033593;28;20029;-76
2021/08/17 03:54:08;;;;;;;10.85;5.00;;;;;;;;;;5033343;28;20492;-75
2021/08/17 03:56:34;;;;;;;10.07;5.25;;;;;;;;;;5033300;28;20068;-75
2021/08/17 03:59:00;;;;;;;10.57;4.65;;;;;;;;;;5033268;28;20462;-75
2021/08/17 04:01:26;;;;;;;14.68;4.82;;;;;;;;;;5033177;28;20374;-76
2021/08/17 04:03:52;;;;;;;9.38;4.88;;;;;;;;;;5033227;28;20060;-75
2021/08/17 04:06:18;;;;;;;11.48;4.82;;;;;;;;;;5033481;28;20022;-74
2021/08/17 04:08:44;;;;;;;13.13;5.22;;;;;;;;;;5032922;28;20025;-75
2021/08/17 04:11:10;;;;;;;10.05;4.65;;;;;;;;;;5032766;28;20053;-76
2021/08/17 04:13:37;;;;;;;12.63;5.40;;;;;;;;;;5033644;28;20037;-75
2021/08/17 04:16:03;;;;;;;9.93;4.82;;;;;;;;;;5033112;28;20025;-75
2021/08/17 04:18:30;;;;;;;11.43;4.80;;;;;;;;;;5033365;28;20036;-76
2021/08/17 04:20:57;;;;;;;10.65;4.90;;;;;;;;;;5033304;28;20026;-74
2021/08/17 04:23:23;;;;;;;14.07;5.22;;;;;;;;;;5033104;28;20068;-76
2021/08/17 04:25:49;;;;;;;12.15;4.95;;;;;;;;;;5033333;28;20029;-76
2021/08/17 04:28:15;;;;;;;11.38;4.68;;;;;;;;;;5033047;28;20029;-75
2021/08/17 04:30:41;;;;;;;9.52;4.72;;;;;;;;;;5033015;28;20025;-75
2021/08/17 04:33:07;;;;;;;11.88;5.63;;;;;;;;;;5032981;28;20056;-76
2021/08/17 04:35:33;;;;;;;11.15;5.25;;;;;;;;;;5033023;28;20466;-75
2021/08/17 04:37:59;;;;;;;10.77;5.40;;;;;;;;;;5032941;28;20535;-75
2021/08/17 04:40:25;;;;;;;13.65;4.78;;;;;;;;;;5015136;28;20426;-75
2021/08/17 04:42:51;;;;;;;11.13;5.38;;;;;;;;;;5033166;28;20026;-75
2021/08/17 04:45:18;;;;;;;12.93;5.45;;;;;;;;;;5033138;28;20092;-76
2021/08/17 04:47:47;;;;;;;10.73;4.82;;;;;;;;;;5015103;28;20032;-75
2021/08/17 04:50:14;;;;;;;11.40;5.32;;;;;;;;;;5015121;28;20434;-76
2021/08/17 04:52:40;;;;;;;11.88;5.18;;;;;;;;;;5015075;28;20064;-75
2021/08/17 04:55:06;;;;;;;12.00;5.47;;;;;;;;;;5032765;28;20096;-75
2021/08/17 04:57:32;;;;;;;9.77;5.13;;;;;;;;;;5032751;28;20037;-76
2021/08/17 04:59:58;;;;;;;8.68;5.07;;;;;;;;;;5035360;28;20033;-76
2021/08/17 05:02:24;;;;;;;11.68;5.55;;;;;;;;;;5036321;28;20395;-75
2021/08/17 05:04:50;;;;;;;12.02;5.30;;;;;;;;;;5036364;28;20018;-76
2021/08/17 05:07:16;;;;;;;10.05;4.75;;;;;;;;;;5036527;28;20029;-75
2021/08/17 05:09:42;;;;;;;12.00;5.15;;;;;;;;;;5036113;28;20037;-76
2021/08/17 05:12:08;;;;;;;12.30;5.63;;;;;;;;;;5036267;28;20109;-75
2021/08/17 05:14:34;;;;;;;9.98;4.50;;;;;;;;;;5036185;28;20449;-75
2021/08/17 05:17:00;;;;;;;11.90;5.10;;;;;;;;;;5036157;28;20029;-76
2021/08/17 05:19:26;;;;;;;10.00;4.82;;;;;;;;;;5036364;28;20107;-75
2021/08/17 05:21:53;;;;;;;11.20;5.28;;;;;;;;;;5036242;28;20087;-75
2021/08/17 05:24:19;;;;;;;8.07;4.63;;;;;;;;;;5036025;28;20097;-75
2021/08/17 05:26:45;;;;;;;10.85;5.45;;;;;;;;;;5036476;28;20025;-76
2021/08/17 05:29:11;;;;;;;10.90;5.10;;;;;;;;;;5036252;28;20028;-74
2021/08/17 05:31:37;;;;;;;10.32;5.20;;;;;;;;;;5035810;28;20486;-76
2021/08/17 05:34:03;;;;;;;11.57;5.28;;;;;;;;;;5035836;28;20037;-74
2021/08/17 05:36:29;;;;;;;15.05;5.50;;;;;;;;;;5035843;28;20025;-76
2021/08/17 05:38:55;;;;;;;10.40;4.57;;;;;;;;;;5035752;28;20044;-75
2021/08/17 05:41:21;;;;;;;11.60;5.50;;;;;;;;;;5035639;28;20029;-75
2021/08/17 05:43:47;;;;;;;10.70;5.20;;;;;;;;;;5035891;28;20026;-76
2021/08/17 05:46:13;;;;;;;10.25;4.78;;;;;;;;;;5035591;28;20025;-75
2021/08/17 05:48:40;;;;;;;9.38;4.72;;;;;;;;;;5035874;28;20032;-76
2021/08/17 05:51:07;;;;;;;7.00;4.47;;;;;;;;;;5035538;28;20025;-76
2021/08/17 05:53:33;;;;;;;9.23;4.82;;;;;;;;;;5035469;28;20037;-74
2021/08/17 05:55:59;;;;;;;10.65;4.70;;;;;;;;;;5035419;28;20029;-75
2021/08/17 05:58:25;;;;;;;11.63;4.97;;;;;;;;;;5035374;28;20022;-75
2021/08/17 06:00:51;;;;;;;8.70;4.55;;;;;;;;;;5035239;28;20076;-76
2021/08/17 06:03:17;;;;;;;8.82;4.13;;;;;;;;;;5035541;28;20022;-75
2021/08/17 06:05:43;;;;;;;11.43;4.30;;;;;;;;;;5035284;28;20109;-76
2021/08/17 06:08:09;;;;;;;11.35;4.53;;;;;;;;;;5035149;28;20018;-75
2021/08/17 06:10:35;;;;;;;9.43;4.60;;;;;;;;;;5034055;28;20409;-76
2021/08/17 06:13:01;;;;;;;10.75;4.18;;;;;;;;;;5035168;28;20026;-75
2021/08/17 06:15:27;;;;;;;7.97;4.70;;;;;;;;;;5035108;28;20034;-75
2021/08/17 06:17:53;;;;;;;7.38;4.05;;;;;;;;;;5035340;28;20385;-75
2021/08/17 06:20:19;;;;;;;10.85;4.82;;;;;;;;;;5017277;28;20028;-74
2021/08/17 06:22:45;;;;;;;9.30;4.50;;;;;;;;;;5034926;28;20029;-75
2021/08/17 06:25:11;;;;;;;7.47;4.18;;;;;;;;;;5017139;28;20028;-75
2021/08/17 06:27:38;;;;;;;10.95;4.70;;;;;;;;;;5034869;28;20033;-76
2021/08/17 06:30:05;;;;;;;12.35;4.93;;;;;;;;;;5034823;28;20136;-76
2021/08/17 06:32:31;;;;;;;14.40;5.07;;;;;;;;;;5035057;28;20040;-76
2021/08/17 06:34:57;;;;;;;10.20;4.57;;;;;;;;;;5034949;28;20021;-76
2021/08/17 06:37:23;;;;;;;13.38;4.88;;;;;;;;;;5034939;28;20056;-76
2021/08/17 06:39:49;;;;;;;9.43;4.65;;;;;;;;;;5034596;28;20029;-76
2021/08/17 06:42:15;;;;;;;7.90;4.53;;;;;;;;;;5034474;28;20033;-75
2021/08/17 06:44:41;;;;;;;8.70;5.07;;;;;;;;;;5034483;28;20460;-77
2021/08/17 06:47:07;;;;;;;9.80;5.00;;;;;;;;;;5034484;28;20026;-76
2021/08/17 06:49:33;;;;;;;10.65;4.80;;;;;;;;;;5034671;28;20078;-75
2021/08/17 06:51:59;;;;;;;11.23;5.32;;;;;;;;;;5034400;28;20112;-75
2021/08/17 06:54:25;;;;;;;11.45;4.63;;;;;;;;;;5016553;28;20503;-75
2021/08/17 06:56:51;;;;;;;9.40;4.65;;;;;;;;;;5034261;28;20030;-75
2021/08/17 06:59:17;;;;;;;19.05;5.25;;;;;;;;;;5034494;28;20022;-75
2021/08/17 07:01:43;;;;;;;11.32;5.03;;;;;;;;;;5034123;28;20060;-75
2021/08/17 07:04:09;;;;;;;7.60;4.18;;;;;;;;;;5016490;28;20493;-76
2021/08/17 07:06:35;;;;;;;9.80;4.82;;;;;;;;;;5034360;28;20049;-76
2021/08/17 07:09:02;;;;;;;13.65;5.57;;;;;;;;;;5016206;28;20490;-76
2021/08/17 07:11:29;;;;;;;9.98;4.78;;;;;;;;;;5033609;28;20050;-76
2021/08/17 07:13:55;;;;;;;12.82;5.15;;;;;;;;;;5033962;28;20032;-74
2021/08/17 07:16:21;;;;;;;8.98;5.32;;;;;;;;;;5033943;28;20029;-76
2021/08/17 07:18:47;;;;;;;10.85;5.03;;;;;;;;;;5034155;28;20065;-75
2021/08/17 07:21:13;;;;;;;10.10;5.32;;;;;;;;;;5033765;28;20520;-76
2021/08/17 07:23:39;;;;;;;8.77;4.95;;;;;;;;;;5033661;28;20021;-75
2021/08/17 07:26:05;;;;;;;10.60;5.00;;;;;;;;;;5033762;28;20025;-76
2021/08/17 07:28:31;;;;;;;10.30;5.10;;;;;;;;;;5034248;28;20022;-75
2021/08/17 07:30:57;;;;;;;10.43;5.38;;;;;;;;;;5033922;28;20103;-75
2021/08/17 07:33:23;;;;;;;11.82;5.28;;;;;;;;;;5033893;28;20029;-75
2021/08/17 07:35:50;;;;;;;10.30;5.60;;;;;;;;;;5033858;28;20029;-76
2021/08/17 07:38:16;;;;;;;11.55;5.00;;;;;;;;;;5015792;28;20064;-76
2021/08/17 07:40:42;;;;;;;11.57;5.07;;;;;;;;;;5034056;28;20029;-75
2021/08/17 07:43:08;;;;;;;12.77;5.63;;;;;;;;;;5033522;28;20657;-75
2021/08/17 07:45:34;;;;;;;7.53;4.70;;;;;;;;;;5033487;28;20017;-76
2021/08/17 07:48:00;;;;;;;9.88;4.88;;;;;;;;;;5033681;28;20018;-76
2021/08/17 07:50:26;;;;;;;11.13;4.53;;;;;;;;;;5033363;28;20025;-75
2021/08/17 07:52:52;;;;;;;10.30;5.18;;;;;;;;;;5033383;28;20026;-75
2021/08/17 07:55:18;;;;;;;8.93;5.20;;;;;;;;;;5033617;28;20500;-75
2021/08/17 07:57:45;;;;;;;8.60;4.97;;;;;;;;;;5033299;28;20022;-73
2021/08/17 08:00:12;;;;;;;8.50;4.53;;;;;;;;;;5033263;28;20049;-77
2021/08/17 08:02:38;;;;;;;7.80;4.57;;;;;;;;;;5033468;28;20496;-75
2021/08/17 08:05:04;;;;;;;10.15;4.57;;;;;;;;;;5033514;28;20029;-74
2021/08/17 08:07:30;;;;;;;12.35;5.45;;;;;;;;;;5015472;28;20084;-75
2021/08/17 08:09:56;;;;;;;7.93;4.82;;;;;;;;;;5033069;28;20493;-76
2021/08/17 08:12:23;;;;;;;9.52;5.40;;;;;;;;;;5033176;28;20059;-76
2021/08/17 08:14:49;;;;;;;8.60;5.28;;;;;;;;;;5033458;28;20474;-76
2021/08/17 08:17:15;;;;;;;10.23;4.97;;;;;;;;;;5033153;28;20025;-76
2021/08/17 08:19:41;;;;;;;7.07;4.15;;;;;;;;;;5033435;28;20030;-76
2021/08/17 08:22:08;;;;;;;10.73;4.88;;;;;;;;;;5033031;28;20062;-76
2021/08/17 08:24:34;;;;;;;7.13;4.10;;;;;;;;;;5033100;28;20104;-76
2021/08/17 08:27:00;;;;;;;10.57;4.28;;;;;;;;;;5032979;28;20104;-75
2021/08/17 08:29:27;;;;;;;9.55;4.63;;;;;;;;;;5015239;28;20485;-77
2021/08/17 08:31:53;;;;;;;8.00;4.20;;;;;;;;;;5032969;28;20511;-76
2021/08/17 08:34:19;;;;;;;8.35;4.05;;;;;;;;;;5034424;28;20025;-76
2021/08/17 08:36:45;;;;;;;6.88;4.25;;;;;;;;;;5037488;28;20029;-76
2021/08/17 08:39:11;;;;;;;11.30;4.70;;;;;;;;;;5037189;28;20029;-76
2021/08/17 08:41:38;;;;;;;7.72;4.30;;;;;;;;;;5037289;28;20036;-74
2021/08/17 08:44:04;;;;;;;7.35;4.05;;;;;;;;;;5036789;28;20040;-76
2021/08/17 08:46:31;;;;;;;7.13;4.28;;;;;;;;;;5036710;28;20544;-76
2021/08/17 08:48:57;;;;;;;9.80;4.30;;;;;;;;;;5037249;28;20072;-76
2021/08/17 08:51:23;;;;;;;7.90;3.55;;;;;;;;;;5036971;28;20033;-76
2021/08/17 08:53:50;;;;;;;7.30;3.80;;;;;;;;;;5036628;28;20029;-76
2021/08/17 08:56:16;;;;;;;7.85;3.67;;;;;;;;;;5036609;28;20037;-76
2021/08/17 08:58:42;;;;;;;7.72;3.60;;;;;;;;;;5036524;28;20496;-77
2021/08/17 09:01:12;;;;;;;6.60;3.30;;;;;;;;;;5018723;28;20032;-76
2021/08/17 09:03:38;;;;;;;;;;;;;;;;;;5037738;28;20104;-77
2021/08/17 09:06:14;;;;;;;5.70;2.78;;;;;;;;;;5036690;28;19962;-75
2021/08/17 09:08:40;;;;;;;5.22;2.72;;;;;;;;;;5036412;28;20024;-77
2021/08/17 09:11:17;;;;;;;7.55;3.17;;;;;;;;;;5036058;28;20049;-76
2021/08/17 09:13:43;;;;;;;7.40;3.05;;;;;;;;;;5036226;28;20029;-77
2021/08/17 09:16:27;;;;;;;7.13;3.33;;;;;;;;;;5036455;28;20029;-77
2021/08/17 09:18:54;;;;;;;6.00;3.00;;;;;;;;;;5036153;28;20030;-77
2021/08/17 09:21:32;;;;;;;5.55;2.90;;;;;;;;;;5036291;28;20036;-75
2021/08/17 09:23:58;;;;;;;5.15;2.75;;;;;;;;;;5036086;28;20017;-76
2021/08/17 09:26:30;;;;;;;5.65;2.80;;;;;;;;;;5036295;28;20029;-77
2021/08/17 09:29:01;;;;;;;7.13;3.22;;;;;;;;;;5017970;28;20022;-76
2021/08/17 09:31:31;;;;;;;7.10;2.80;;;;;;;;;;5035954;28;20144;-77
2021/08/17 09:33:57;;;;;;;8.05;3.00;;;;;;;;;;5036396;28;20017;-76
2021/08/17 09:36:23;;;;;;;5.10;2.72;;;;;;;;;;5036303;28;20057;-75
2021/08/17 09:38:49;;;;;;;6.85;3.05;;;;;;;;;;5035782;28;20072;-76
2021/08/17 09:41:20;;;;;;;5.90;2.72;;;;;;;;;;5035658;28;20037;-76
2021/08/17 09:43:56;;;;;;;4.63;2.33;;;;;;;;;;5035704;28;20045;-75
2021/08/17 09:46:27;;;;;;;6.15;2.70;;;;;;;;;;5034316;28;20128;-76
2021/08/17 09:48:54;;;;;;;5.35;2.85;;;;;;;;;;5036166;28;20516;-76
2021/08/17 09:51:33;;;;;;;5.93;2.65;;;;;;;;;;5035552;28;20392;-76
2021/08/17 09:54:16;;;;;;;3.97;2.42;;;;;;;;;;5036092;28;20025;-75
2021/08/17 09:56:42;;;;;;;6.72;3.00;;;;;;;;;;5035467;28;20456;-76
2021/08/17 09:59:08;;;;;;;6.60;3.00;;;;;;;;;;5035662;28;20358;-77
2021/08/17 10:01:36;;;;;;;6.03;2.80;;;;;;;;;;5035307;28;20481;-75
2021/08/17 10:04:02;;;;;;;5.57;3.20;;;;;;;;;;5017592;28;20028;-77
2021/08/17 10:06:29;;;;;;;7.78;3.40;;;;;;;;;;5035326;28;20033;-77
2021/08/17 10:08:57;;;;;;;6.13;3.10;;;;;;;;;;5017363;28;20456;-75
2021/08/17 10:11:23;;;;;;;6.93;3.15;;;;;;;;;;5034707;28;20417;-76
2021/08/17 10:13:50;;;;;;;6.97;3.78;;;;;;;;;;5035466;28;20504;-75
2021/08/17 10:16:17;;;;;;;6.20;3.40;;;;;;;;;;5035097;28;20036;-76
2021/08/17 10:18:44;;;;;;;9.98;4.22;;;;;;;;;;5035056;28;20029;-77
2021/08/17 10:21:10;;;;;;;9.35;4.07;;;;;;;;;;5034948;28;20032;-76
2021/08/17 10:23:40;;;;;;;6.97;3.38;;;;;;;;;;5034942;28;20017;-77
2021/08/17 10:26:06;;;;;;;8.60;3.90;;;;;;;;;;5034903;28;20017;-75
2021/08/17 10:28:34;;;;;;;6.95;3.58;;;;;;;;;;5034878;28;20151;-76
2021/08/17 10:31:11;;;;;;;7.32;3.53;;;;;;;;;;5035070;28;20095;-75
2021/08/17 10:33:39;;;;;;;10.52;4.13;;;;;;;;;;5034990;28;20555;-76
2021/08/17 10:36:06;;;;;;;9.32;3.63;;;;;;;;;;5034995;28;20371;-77
2021/08/17 10:38:32;;;;;;;8.55;3.67;;;;;;;;;;5034909;28;20096;-77
2021/08/17 10:40:57;;;;;;;7.88;3.80;;;;;;;;;;5016749;28;20116;-76
2021/08/17 10:43:26;;;;;;;9.23;4.35;;;;;;;;;;5034523;28;20025;-76
2021/08/17 10:45:59;;;;;;;6.22;3.42;;;;;;;;;;5035090;28;20025;-76
2021/08/17 10:48:50;;;;;;;6.38;2.63;;;;;;;;;;5034523;28;20024;-76
2021/08/17 10:51:20;;;;;;;5.47;3.00;;;;;;;;;;5025611;28;20045;-75
2021/08/17 10:53:47;;;;;;;7.00;3.33;;;;;;;;;;5034630;28;20022;-77
2021/08/17 10:56:14;;;;;;;8.07;3.38;;;;;;;;;;5034409;28;20037;-76
2021/08/17 10:58:41;;;;;;;4.72;3.13;;;;;;;;;;5034616;28;20022;-76
2021/08/17 11:01:07;;;;;;;7.18;3.63;;;;;;;;;;5034107;28;20084;-76
2021/08/17 11:03:41;;;;;;;6.25;3.33;;;;;;;;;;5016437;28;20386;-75
2021/08/17 11:06:07;;;;;;;6.57;3.42;;;;;;;;;;5016214;28;20449;-76
2021/08/17 11:08:33;;;;;;;7.05;3.83;;;;;;;;;;5034011;28;20025;-76
2021/08/17 11:11:00;;;;;;;5.38;3.28;;;;;;;;;;5033898;28;20099;-76
2021/08/17 11:13:26;;;;;;;5.13;2.92;;;;;;;;;;5034025;28;20025;-77
2021/08/17 11:16:05;;;;;;;7.88;3.28;;;;;;;;;;5033981;28;20029;-76
2021/08/17 11:18:48;;;;;;;5.20;3.20;;;;;;;;;;5033954;28;20029;-77
2021/08/17 11:21:14;;;;;;;7.45;3.30;;;;;;;;;;5034137;28;20025;-77
2021/08/17 11:23:40;;;;;;;6.28;3.22;;;;;;;;;;5034106;28;20381;-76
2021/08/17 11:26:09;;;;;;;6.22;3.05;;;;;;;;;;5033782;28;20014;-75
2021/08/17 11:28:35;;;;;;;6.90;3.28;;;;;;;;;;5016039;28;20116;-77
2021/08/17 11:31:01;;;;;;;4.85;2.72;;;;;;;;;;5033972;28;20057;-76
2021/08/17 11:33:27;;;;;;;6.43;2.90;;;;;;;;;;5033658;28;20421;-76
2021/08/17 11:35:53;;;;;;;5.00;2.88;;;;;;;;;;5033628;28;20025;-76
2021/08/17 11:38:21;;;;;;;6.57;3.38;;;;;;;;;;5033602;28;20124;-76
2021/08/17 11:40:47;;;;;;;6.20;3.13;;;;;;;;;;5033442;28;20030;-75
2021/08/17 11:43:16;;;;;;;8.18;2.80;;;;;;;;;;5033525;28;20030;-76
2021/08/17 11:45:42;;;;;;;6.00;2.92;;;;;;;;;;5034055;28;20470;-77
2021/08/17 11:48:08;;;;;;;7.07;2.75;;;;;;;;;;5015752;28;20017;-77
2021/08/17 11:50:34;;;;;;;5.63;2.67;;;;;;;;;;5033991;28;20026;-76
2021/08/17 11:53:02;;;;;;;5.78;2.97;;;;;;;;;;5033413;28;20385;-77
2021/08/17 11:55:29;;;;;;;4.30;2.70;;;;;;;;;;5033679;28;20100;-76
2021/08/17 11:57:55;;;;;;;7.05;2.95;;;;;;;;;;5033374;28;20029;-76
2021/08/17 12:00:22;;;;;;;5.93;3.05;;;;;;;;;;5033550;28;20031;-77
2021/08/17 12:02:52;;;;;;;5.60;2.92;;;;;;;;;;5033150;28;20060;-76
2021/08/17 12:05:22;;;;;;;5.03;2.90;;;;;;;;;;5033210;28;20022;-77
2021/08/17 12:07:48;;;;;;;;;;;;;;;;;;5015727;28;20026;-76
2021/08/17 12:10:19;;;;;;;5.18;2.88;;;;;;;;;;5032414;28;19917;-77
2021/08/17 12:13:01;;;;;;;5.20;2.90;;;;;;;;;;5015246;28;20021;-77
2021/08/17 12:15:28;;;;;;;6.00;2.88;;;;;;;;;;5033199;28;20497;-76
2021/08/17 12:18:01;;;;;;;6.70;3.10;;;;;;;;;;5033407;28;20032;-77
2021/08/17 12:20:27;;;;;;;6.07;3.13;;;;;;;;;;5033136;28;20091;-76
2021/08/17 12:22:53;;;;;;;5.45;2.85;;;;;;;;;;5033059;28;20029;-76
2021/08/17 12:25:20;;;;;;;5.55;2.97;;;;;;;;;;5033093;28;20047;-75
2021/08/17 12:27:52;;;;;;;5.88;3.20;;;;;;;;;;5033056;28;20477;-77
2021/08/17 12:30:34;;;;;;;5.43;3.55;;;;;;;;;;5033303;28;20025;-77
2021/08/17 12:33:00;;;;;;;7.65;3.55;;;;;;;;;;5033016;28;20025;-77
2021/08/17 12:35:30;;;;;;;7.53;3.72;;;;;;;;;;5033523;28;20031;-77
2021/08/17 12:37:58;;;;;;;7.30;4.20;;;;;;;;;;5033258;28;20049;-75
2021/08/17 12:40:24;;;;;;;7.47;3.90;;;;;;;;;;5032915;28;20034;-75
2021/08/17 12:42:50;;;;;;;10.80;4.22;;;;;;;;;;5033171;28;20022;-76
2021/08/17 12:45:29;;;;;;;9.15;4.53;;;;;;;;;;5033169;28;20029;-76
2021/08/17 12:48:01;;;;;;;7.37;4.07;;;;;;;;;;5014944;28;20051;-77
2021/08/17 12:50:36;;;;;;;7.10;4.22;;;;;;;;;;5015163;28;20256;-75
2021/08/17 12:53:02;;;;;;;9.50;4.60;;;;;;;;;;5014882;28;20122;-76
2021/08/17 12:55:28;;;;;;;8.18;4.43;;;;;;;;;;5032855;28;20064;-76
2021/08/17 12:57:55;;;;;;;8.00;4.25;;;;;;;;;;5032762;28;20036;-76
2021/08/17 13:00:22;;;;;;;7.70;4.32;;;;;;;;;;5032774;28;20029;-76
2021/08/17 13:02:49;;;;;;;10.63;5.00;;;;;;;;;;5032643;28;20068;-77
2021/08/17 13:05:15;;;;;;;6.60;4.05;;;;;;;;;;5033273;28;20029;-75
2021/08/17 13:07:42;;;;;;;6.93;4.15;;;;;;;;;;5032576;28;20104;-75
2021/08/17 13:10:09;;;;;;;8.40;4.60;;;;;;;;;;5032472;28;20099;-76
2021/08/17 13:12:36;;;;;;;8.73;4.20;;;;;;;;;;5032637;28;20053;-76
2021/08/17 13:15:03;;;;;;;5.30;3.42;;;;;;;;;;5032690;28;20024;-75
2021/08/17 13:17:29;;;;;;;9.00;4.20;;;;;;;;;;5032862;28;20045;-77
2021/08/17 13:19:55;;;;;;;6.78;3.75;;;;;;;;;;5033533;28;20067;-75
2021/08/17 13:22:22;;;;;;;6.97;3.70;;;;;;;;;;5036065;28;20116;-77
2021/08/17 13:24:48;;;;;;;7.47;3.78;;;;;;;;;;5036081;28;20389;-75
2021/08/17 13:27:15;;;;;;;9.45;4.18;;;;;;;;;;5036293;28;20049;-76
2021/08/17 13:29:41;;;;;;;4.82;3.35;;;;;;;;;;5035965;28;20032;-75
2021/08/17 13:32:07;;;;;;;5.70;2.78;;;;;;;;;;5035926;28;20040;-77
2021/08/17 13:34:33;;;;;;;6.07;3.35;;;;;;;;;;5036141;28;20108;-77
2021/08/17 13:36:59;;;;;;;6.05;3.28;;;;;;;;;;5035866;28;20112;-77
2021/08/17 13:39:26;;;;;;;5.55;3.20;;;;;;;;;;5036085;28;20025;-77
2021/08/17 13:41:52;;;;;;;6.28;3.50;;;;;;;;;;5035780;28;20025;-77
2021/08/17 13:44:18;;;;;;;5.18;2.97;;;;;;;;;;5035776;28;20500;-76
2021/08/17 13:46:44;;;;;;;6.50;3.42;;;;;;;;;;5035696;28;20025;-77
2021/08/17 13:49:10;;;;;;;5.57;2.67;;;;;;;;;;5035642;28;20017;-76
2021/08/17 13:51:37;;;;;;;5.13;3.00;;;;;;;;;;5017877;28;20038;-76
2021/08/17 13:54:03;;;;;;;5.65;2.67;;;;;;;;;;5035530;28;20388;-77
2021/08/17 13:56:29;;;;;;;3.60;2.50;;;;;;;;;;5035522;28;20473;-77
2021/08/17 13:58:55;;;;;;;3.72;2.55;;;;;;;;;;5017670;28;20030;-76
2021/08/17 14:01:21;;;;;;;4.60;2.58;;;;;;;;;;5035339;28;20030;-77
2021/08/17 14:03:47;;;;;;;5.43;2.65;;;;;;;;;;5035390;28;20022;-76
2021/08/17 14:06:14;;;;;;;4.32;2.50;;;;;;;;;;5035295;28;20033;-77
2021/08/17 14:08:41;;;;;;;3.80;2.45;;;;;;;;;;5035167;28;20076;-76
2021/08/17 14:11:07;;;;;;;6.43;2.47;;;;;;;;;;5035149;28;20049;-76
2021/08/17 14:13:33;;;;;;;4.68;2.45;;;;;;;;;;5035159;28;20100;-76
2021/08/17 14:16:02;;;;;;;4.95;2.38;;;;;;;;;;5035376;28;20057;-76
2021/08/17 14:18:29;;;;;;;3.95;2.60;;;;;;;;;;5035099;28;20047;-77
2021/08/17 14:21:00;;;;;;;6.30;2.65;;;;;;;;;;5017187;28;20037;-76
2021/08/17 14:23:26;;;;;;;7.63;2.78;;;;;;;;;;5034982;28;20021;-76
2021/08/17 14:25:52;;;;;;;4.53;2.67;;;;;;;;;;5034925;28;20022;-76
2021/08/17 14:28:18;;;;;;;4.18;2.22;;;;;;;;;;5034845;28;20067;-77
2021/08/17 14:30:44;;;;;;;5.43;2.42;;;;;;;;;;5034883;28;20385;-75
2021/08/17 14:33:13;;;;;;;4.38;2.25;;;;;;;;;;5033993;28;20021;-76
2021/08/17 14:35:40;;;;;;;3.97;2.00;;;;;;;;;;5035034;28;20032;-77
2021/08/17 14:38:06;;;;;;;3.92;2.30;;;;;;;;;;5034697;28;20018;-77